sensor_id;sensor_type;location;lat;lon;timestamp;temperature;humidity
2941;DHT22;1480;51.456;6.670;2022-12-04T00:00:05;4.60;77.80
2941;DHT22;1480;51.456;6.670;2022-12-04T00:02:33;4.60;78.10
2941;DHT22;1480;51.456;6.670;2022-12-04T00:05:04;4.80;77.90
2941;DHT22;1480;51.456;6.670;2022-12-04T00:07:31;4.50;78.10
2941;DHT22;1480;51.456;6.670;2022-12-04T00:09:58;4.60;78.40
2941;DHT22;1480;51.456;6.670;2022-12-04T00:12:26;4.70;77.80
2941;DHT22;1480;51.456;6.670;2022-12-04T00:14:53;4.50;77.90
2941;DHT22;1480;51.456;6.670;2022-12-04T00:17:20;4.70;77.00
2941;DHT22;1480;51.456;6.670;2022-12-04T00:19:47;4.50;77.40
2941;DHT22;1480;51.456;6.670;2022-12-04T00:22:14;4.30;77.70
2941;DHT22;1480;51.456;6.670;2022-12-04T00:24:41;4.30;78.20
2941;DHT22;1480;51.456;6.670;2022-12-04T00:27:08;4.40;78.30
2941;DHT22;1480;51.456;6.670;2022-12-04T00:29:37;4.50;78.00
2941;DHT22;1480;51.456;6.670;2022-12-04T00:32:04;4.40;77.00
2941;DHT22;1480;51.456;6.670;2022-12-04T00:34:31;4.30;78.00
2941;DHT22;1480;51.456;6.670;2022-12-04T00:36:58;4.30;78.20
2941;DHT22;1480;51.456;6.670;2022-12-04T00:39:25;4.30;78.80
2941;DHT22;1480;51.456;6.670;2022-12-04T00:42:01;4.40;78.50
2941;DHT22;1480;51.456;6.670;2022-12-04T00:44:28;4.60;78.10
2941;DHT22;1480;51.456;6.670;2022-12-04T00:46:56;4.30;78.20
2941;DHT22;1480;51.456;6.670;2022-12-04T00:49:23;4.40;77.80
2941;DHT22;1480;51.456;6.670;2022-12-04T00:51:50;4.40;77.60
2941;DHT22;1480;51.456;6.670;2022-12-04T00:54:17;4.50;78.10
2941;DHT22;1480;51.456;6.670;2022-12-04T00:56:44;4.40;78.30
2941;DHT22;1480;51.456;6.670;2022-12-04T00:59:11;4.60;78.20
2941;DHT22;1480;51.456;6.670;2022-12-04T01:01:39;4.70;79.00
2941;DHT22;1480;51.456;6.670;2022-12-04T01:04:07;4.60;77.90
2941;DHT22;1480;51.456;6.670;2022-12-04T01:06:37;4.60;78.30
2941;DHT22;1480;51.456;6.670;2022-12-04T01:09:04;4.40;78.00
2941;DHT22;1480;51.456;6.670;2022-12-04T01:11:32;4.60;78.70
2941;DHT22;1480;51.456;6.670;2022-12-04T01:13:59;4.60;78.60
2941;DHT22;1480;51.456;6.670;2022-12-04T01:16:28;4.40;78.30
2941;DHT22;1480;51.456;6.670;2022-12-04T01:18:58;4.70;78.00
2941;DHT22;1480;51.456;6.670;2022-12-04T01:21:27;4.70;78.40
2941;DHT22;1480;51.456;6.670;2022-12-04T01:23:54;4.60;78.70
2941;DHT22;1480;51.456;6.670;2022-12-04T01:26:26;4.70;78.50
2941;DHT22;1480;51.456;6.670;2022-12-04T01:28:53;4.70;78.90
2941;DHT22;1480;51.456;6.670;2022-12-04T01:31:20;4.60;78.30
2941;DHT22;1480;51.456;6.670;2022-12-04T01:33:51;4.60;78.20
2941;DHT22;1480;51.456;6.670;2022-12-04T01:36:20;4.50;77.90
2941;DHT22;1480;51.456;6.670;2022-12-04T01:38:48;4.60;78.20
2941;DHT22;1480;51.456;6.670;2022-12-04T01:41:18;4.30;77.90
2941;DHT22;1480;51.456;6.670;2022-12-04T01:44:11;4.60;78.60
2941;DHT22;1480;51.456;6.670;2022-12-04T01:46:38;4.60;77.80
2941;DHT22;1480;51.456;6.670;2022-12-04T01:49:06;4.80;78.00
2941;DHT22;1480;51.456;6.670;2022-12-04T01:51:36;4.60;77.90
2941;DHT22;1480;51.456;6.670;2022-12-04T01:54:09;4.50;77.90
2941;DHT22;1480;51.456;6.670;2022-12-04T01:56:40;4.40;78.30
2941;DHT22;1480;51.456;6.670;2022-12-04T01:59:11;4.50;78.80
2941;DHT22;1480;51.456;6.670;2022-12-04T02:01:43;4.30;78.10
2941;DHT22;1480;51.456;6.670;2022-12-04T02:04:12;4.40;78.50
2941;DHT22;1480;51.456;6.670;2022-12-04T02:06:39;4.40;78.60
2941;DHT22;1480;51.456;6.670;2022-12-04T02:09:07;4.50;78.20
2941;DHT22;1480;51.456;6.670;2022-12-04T02:11:38;4.40;78.30
2941;DHT22;1480;51.456;6.670;2022-12-04T02:14:12;4.40;78.10
2941;DHT22;1480;51.456;6.670;2022-12-04T02:16:46;4.40;78.90
2941;DHT22;1480;51.456;6.670;2022-12-04T02:22:21;4.70;78.70
2941;DHT22;1480;51.456;6.670;2022-12-04T02:24:57;4.40;78.90
2941;DHT22;1480;51.456;6.670;2022-12-04T02:27:48;4.60;78.80
2941;DHT22;1480;51.456;6.670;2022-12-04T02:30:18;4.50;78.60
2941;DHT22;1480;51.456;6.670;2022-12-04T02:32:48;4.60;78.30
2941;DHT22;1480;51.456;6.670;2022-12-04T02:35:26;4.60;78.30
2941;DHT22;1480;51.456;6.670;2022-12-04T02:37:58;4.50;78.80
2941;DHT22;1480;51.456;6.670;2022-12-04T02:40:32;4.60;78.20
2941;DHT22;1480;51.456;6.670;2022-12-04T02:43:08;4.60;78.90
2941;DHT22;1480;51.456;6.670;2022-12-04T02:45:39;4.50;78.10
2941;DHT22;1480;51.456;6.670;2022-12-04T02:48:07;4.70;78.40
2941;DHT22;1480;51.456;6.670;2022-12-04T02:50:37;4.60;78.20
2941;DHT22;1480;51.456;6.670;2022-12-04T02:53:09;4.70;77.90
2941;DHT22;1480;51.456;6.670;2022-12-04T02:55:41;4.50;78.30
2941;DHT22;1480;51.456;6.670;2022-12-04T02:58:13;4.60;77.90
2941;DHT22;1480;51.456;6.670;2022-12-04T03:00:43;4.50;78.60
2941;DHT22;1480;51.456;6.670;2022-12-04T03:03:14;4.40;79.40
2941;DHT22;1480;51.456;6.670;2022-12-04T03:05:46;4.50;77.80
2941;DHT22;1480;51.456;6.670;2022-12-04T03:08:18;4.60;78.60
2941;DHT22;1480;51.456;6.670;2022-12-04T03:10:48;4.40;78.90
2941;DHT22;1480;51.456;6.670;2022-12-04T03:13:20;4.50;78.00
2941;DHT22;1480;51.456;6.670;2022-12-04T03:15:50;4.40;78.40
2941;DHT22;1480;51.456;6.670;2022-12-04T03:18:22;4.40;79.00
2941;DHT22;1480;51.456;6.670;2022-12-04T03:20:56;4.40;79.10
2941;DHT22;1480;51.456;6.670;2022-12-04T03:23:28;4.30;79.40
2941;DHT22;1480;51.456;6.670;2022-12-04T03:26:00;4.30;79.30
2941;DHT22;1480;51.456;6.670;2022-12-04T03:28:34;4.40;79.20
2941;DHT22;1480;51.456;6.670;2022-12-04T03:31:05;4.30;79.10
2941;DHT22;1480;51.456;6.670;2022-12-04T03:33:37;4.10;79.00
2941;DHT22;1480;51.456;6.670;2022-12-04T03:36:13;4.20;79.20
2941;DHT22;1480;51.456;6.670;2022-12-04T03:38:43;4.10;79.50
2941;DHT22;1480;51.456;6.670;2022-12-04T03:41:14;4.20;79.50
2941;DHT22;1480;51.456;6.670;2022-12-04T03:43:48;4.20;79.10
2941;DHT22;1480;51.456;6.670;2022-12-04T03:46:22;4.10;79.70
2941;DHT22;1480;51.456;6.670;2022-12-04T03:48:54;4.20;80.10
2941;DHT22;1480;51.456;6.670;2022-12-04T03:51:26;4.00;79.60
2941;DHT22;1480;51.456;6.670;2022-12-04T03:53:59;4.20;79.80
2941;DHT22;1480;51.456;6.670;2022-12-04T03:56:30;4.10;79.60
2941;DHT22;1480;51.456;6.670;2022-12-04T03:59:04;4.30;79.90
2941;DHT22;1480;51.456;6.670;2022-12-04T04:01:37;4.20;79.70
2941;DHT22;1480;51.456;6.670;2022-12-04T04:04:08;4.20;80.00
2941;DHT22;1480;51.456;6.670;2022-12-04T04:06:39;4.10;80.20
2941;DHT22;1480;51.456;6.670;2022-12-04T04:09:12;4.10;79.80
2941;DHT22;1480;51.456;6.670;2022-12-04T04:11:43;4.30;79.70
2941;DHT22;1480;51.456;6.670;2022-12-04T04:14:16;4.20;80.00
2941;DHT22;1480;51.456;6.670;2022-12-04T04:17:05;4.10;79.10
2941;DHT22;1480;51.456;6.670;2022-12-04T04:19:55;4.20;79.40
2941;DHT22;1480;51.456;6.670;2022-12-04T04:22:43;4.20;80.20
2941;DHT22;1480;51.456;6.670;2022-12-04T04:25:28;4.30;80.00
2941;DHT22;1480;51.456;6.670;2022-12-04T04:27:57;4.20;80.00
2941;DHT22;1480;51.456;6.670;2022-12-04T04:30:26;4.20;80.10
2941;DHT22;1480;51.456;6.670;2022-12-04T04:32:59;4.30;80.30
2941;DHT22;1480;51.456;6.670;2022-12-04T04:35:34;4.10;79.90
2941;DHT22;1480;51.456;6.670;2022-12-04T04:38:08;4.10;79.30
2941;DHT22;1480;51.456;6.670;2022-12-04T04:40:46;4.00;79.50
2941;DHT22;1480;51.456;6.670;2022-12-04T04:43:19;4.00;80.00
2941;DHT22;1480;51.456;6.670;2022-12-04T04:45:52;4.10;80.10
2941;DHT22;1480;51.456;6.670;2022-12-04T04:48:26;3.90;80.00
2941;DHT22;1480;51.456;6.670;2022-12-04T04:50:55;3.90;80.20
2941;DHT22;1480;51.456;6.670;2022-12-04T04:53:27;3.80;80.10
2941;DHT22;1480;51.456;6.670;2022-12-04T04:55:56;3.90;79.70
2941;DHT22;1480;51.456;6.670;2022-12-04T04:58:24;3.80;79.60
2941;DHT22;1480;51.456;6.670;2022-12-04T05:00:57;4.00;80.20
2941;DHT22;1480;51.456;6.670;2022-12-04T05:03:25;3.80;79.90
2941;DHT22;1480;51.456;6.670;2022-12-04T05:05:52;3.80;79.70
2941;DHT22;1480;51.456;6.670;2022-12-04T05:08:18;3.70;79.90
2941;DHT22;1480;51.456;6.670;2022-12-04T05:10:45;3.60;80.50
2941;DHT22;1480;51.456;6.670;2022-12-04T05:13:13;3.60;80.40
2941;DHT22;1480;51.456;6.670;2022-12-04T05:15:41;3.50;79.90
2941;DHT22;1480;51.456;6.670;2022-12-04T05:18:09;3.50;80.80
2941;DHT22;1480;51.456;6.670;2022-12-04T05:20:37;3.60;80.60
2941;DHT22;1480;51.456;6.670;2022-12-04T05:23:03;3.50;80.30
2941;DHT22;1480;51.456;6.670;2022-12-04T05:25:32;3.70;80.60
2941;DHT22;1480;51.456;6.670;2022-12-04T05:27:58;3.70;80.50
2941;DHT22;1480;51.456;6.670;2022-12-04T05:30:25;3.60;80.30
2941;DHT22;1480;51.456;6.670;2022-12-04T05:32:52;3.60;81.10
2941;DHT22;1480;51.456;6.670;2022-12-04T05:35:20;3.40;81.10
2941;DHT22;1480;51.456;6.670;2022-12-04T05:37:47;3.40;80.80
2941;DHT22;1480;51.456;6.670;2022-12-04T05:40:15;3.60;80.50
2941;DHT22;1480;51.456;6.670;2022-12-04T05:42:42;3.70;80.90
2941;DHT22;1480;51.456;6.670;2022-12-04T05:45:09;3.70;80.50
2941;DHT22;1480;51.456;6.670;2022-12-04T05:47:39;3.70;80.60
2941;DHT22;1480;51.456;6.670;2022-12-04T05:50:08;3.70;80.80
2941;DHT22;1480;51.456;6.670;2022-12-04T05:52:37;3.70;80.50
2941;DHT22;1480;51.456;6.670;2022-12-04T05:55:04;3.70;80.30
2941;DHT22;1480;51.456;6.670;2022-12-04T05:57:31;3.70;80.20
2941;DHT22;1480;51.456;6.670;2022-12-04T05:59:58;3.80;80.00
2941;DHT22;1480;51.456;6.670;2022-12-04T06:02:25;3.70;80.30
2941;DHT22;1480;51.456;6.670;2022-12-04T06:04:52;3.70;80.00
2941;DHT22;1480;51.456;6.670;2022-12-04T06:07:19;3.70;79.60
2941;DHT22;1480;51.456;6.670;2022-12-04T06:09:47;3.80;79.60
2941;DHT22;1480;51.456;6.670;2022-12-04T06:12:14;3.60;80.00
2941;DHT22;1480;51.456;6.670;2022-12-04T06:14:41;3.70;80.20
2941;DHT22;1480;51.456;6.670;2022-12-04T06:17:08;3.80;79.80
2941;DHT22;1480;51.456;6.670;2022-12-04T06:19:34;3.90;79.30
2941;DHT22;1480;51.456;6.670;2022-12-04T06:22:02;3.90;79.20
2941;DHT22;1480;51.456;6.670;2022-12-04T06:24:29;3.70;79.10
2941;DHT22;1480;51.456;6.670;2022-12-04T06:26:57;3.50;79.20
2941;DHT22;1480;51.456;6.670;2022-12-04T06:29:25;3.70;79.40
2941;DHT22;1480;51.456;6.670;2022-12-04T06:31:52;3.50;79.40
2941;DHT22;1480;51.456;6.670;2022-12-04T06:34:19;3.60;79.50
2941;DHT22;1480;51.456;6.670;2022-12-04T06:36:46;3.70;79.70
2941;DHT22;1480;51.456;6.670;2022-12-04T06:39:13;3.70;79.70
2941;DHT22;1480;51.456;6.670;2022-12-04T06:41:40;3.70;80.50
2941;DHT22;1480;51.456;6.670;2022-12-04T06:44:08;4.00;79.50
2941;DHT22;1480;51.456;6.670;2022-12-04T06:46:35;3.90;80.20
2941;DHT22;1480;51.456;6.670;2022-12-04T06:49:02;4.00;79.40
2941;DHT22;1480;51.456;6.670;2022-12-04T06:51:31;4.00;79.60
2941;DHT22;1480;51.456;6.670;2022-12-04T06:53:59;3.80;79.40
2941;DHT22;1480;51.456;6.670;2022-12-04T06:56:28;3.80;79.70
2941;DHT22;1480;51.456;6.670;2022-12-04T06:58:57;3.90;79.60
2941;DHT22;1480;51.456;6.670;2022-12-04T07:01:27;3.90;79.40
2941;DHT22;1480;51.456;6.670;2022-12-04T07:03:55;3.90;79.30
2941;DHT22;1480;51.456;6.670;2022-12-04T07:06:23;3.80;79.20
2941;DHT22;1480;51.456;6.670;2022-12-04T07:08:52;4.10;79.10
2941;DHT22;1480;51.456;6.670;2022-12-04T07:11:20;3.80;79.40
2941;DHT22;1480;51.456;6.670;2022-12-04T07:13:48;3.80;79.30
2941;DHT22;1480;51.456;6.670;2022-12-04T07:16:17;3.70;79.10
2941;DHT22;1480;51.456;6.670;2022-12-04T07:18:45;3.80;79.10
2941;DHT22;1480;51.456;6.670;2022-12-04T07:21:17;3.90;78.90
2941;DHT22;1480;51.456;6.670;2022-12-04T07:23:48;3.70;78.60
2941;DHT22;1480;51.456;6.670;2022-12-04T07:26:15;3.90;78.70
2941;DHT22;1480;51.456;6.670;2022-12-04T07:28:42;3.50;79.60
2941;DHT22;1480;51.456;6.670;2022-12-04T07:31:13;3.50;79.50
2941;DHT22;1480;51.456;6.670;2022-12-04T07:33:40;3.40;79.60
2941;DHT22;1480;51.456;6.670;2022-12-04T07:36:12;3.30;79.70
2941;DHT22;1480;51.456;6.670;2022-12-04T07:38:39;3.50;80.00
2941;DHT22;1480;51.456;6.670;2022-12-04T07:41:07;3.40;79.70
2941;DHT22;1480;51.456;6.670;2022-12-04T07:43:35;3.50;79.80
2941;DHT22;1480;51.456;6.670;2022-12-04T07:46:04;3.50;80.10
2941;DHT22;1480;51.456;6.670;2022-12-04T07:48:32;3.40;79.90
2941;DHT22;1480;51.456;6.670;2022-12-04T07:51:03;3.50;80.10
2941;DHT22;1480;51.456;6.670;2022-12-04T07:53:32;3.40;80.10
2941;DHT22;1480;51.456;6.670;2022-12-04T07:55:59;3.10;80.50
2941;DHT22;1480;51.456;6.670;2022-12-04T07:58:26;3.30;80.70
2941;DHT22;1480;51.456;6.670;2022-12-04T08:00:53;3.30;80.80
2941;DHT22;1480;51.456;6.670;2022-12-04T08:03:20;3.50;80.60
2941;DHT22;1480;51.456;6.670;2022-12-04T08:05:47;3.40;80.50
2941;DHT22;1480;51.456;6.670;2022-12-04T08:08:14;3.70;80.20
2941;DHT22;1480;51.456;6.670;2022-12-04T08:10:42;3.50;80.10
2941;DHT22;1480;51.456;6.670;2022-12-04T08:13:09;3.40;80.30
2941;DHT22;1480;51.456;6.670;2022-12-04T08:15:36;3.60;80.50
2941;DHT22;1480;51.456;6.670;2022-12-04T08:18:03;3.50;80.30
2941;DHT22;1480;51.456;6.670;2022-12-04T08:20:30;3.60;80.00
2941;DHT22;1480;51.456;6.670;2022-12-04T08:22:57;3.50;80.00
2941;DHT22;1480;51.456;6.670;2022-12-04T08:25:24;3.70;79.90
2941;DHT22;1480;51.456;6.670;2022-12-04T08:27:53;3.50;79.90
2941;DHT22;1480;51.456;6.670;2022-12-04T08:30:20;3.60;80.00
2941;DHT22;1480;51.456;6.670;2022-12-04T08:32:47;3.60;80.10
2941;DHT22;1480;51.456;6.670;2022-12-04T08:35:14;3.50;80.90
2941;DHT22;1480;51.456;6.670;2022-12-04T08:37:41;3.60;80.00
2941;DHT22;1480;51.456;6.670;2022-12-04T08:40:09;3.60;80.20
2941;DHT22;1480;51.456;6.670;2022-12-04T08:42:37;3.50;80.10
2941;DHT22;1480;51.456;6.670;2022-12-04T08:45:07;3.50;80.10
2941;DHT22;1480;51.456;6.670;2022-12-04T08:47:34;3.50;80.20
2941;DHT22;1480;51.456;6.670;2022-12-04T08:50:01;3.40;80.50
2941;DHT22;1480;51.456;6.670;2022-12-04T08:52:28;3.60;80.50
2941;DHT22;1480;51.456;6.670;2022-12-04T08:54:56;3.60;80.30
2941;DHT22;1480;51.456;6.670;2022-12-04T08:57:23;3.30;80.00
2941;DHT22;1480;51.456;6.670;2022-12-04T08:59:50;3.70;80.00
2941;DHT22;1480;51.456;6.670;2022-12-04T09:02:18;3.50;79.90
2941;DHT22;1480;51.456;6.670;2022-12-04T09:04:45;3.60;80.30
2941;DHT22;1480;51.456;6.670;2022-12-04T09:07:12;3.60;80.00
2941;DHT22;1480;51.456;6.670;2022-12-04T09:09:39;3.90;80.20
2941;DHT22;1480;51.456;6.670;2022-12-04T09:12:06;3.80;79.80
2941;DHT22;1480;51.456;6.670;2022-12-04T09:14:33;4.00;79.70
2941;DHT22;1480;51.456;6.670;2022-12-04T09:17:00;3.80;79.70
2941;DHT22;1480;51.456;6.670;2022-12-04T09:19:28;4.10;79.30
2941;DHT22;1480;51.456;6.670;2022-12-04T09:21:56;3.90;79.30
2941;DHT22;1480;51.456;6.670;2022-12-04T09:24:23;3.90;79.30
2941;DHT22;1480;51.456;6.670;2022-12-04T09:26:50;3.70;79.20
2941;DHT22;1480;51.456;6.670;2022-12-04T09:29:17;4.10;79.70
2941;DHT22;1480;51.456;6.670;2022-12-04T09:31:44;3.80;79.50
2941;DHT22;1480;51.456;6.670;2022-12-04T09:34:13;3.90;79.90
2941;DHT22;1480;51.456;6.670;2022-12-04T09:36:42;4.00;79.90
2941;DHT22;1480;51.456;6.670;2022-12-04T09:39:09;3.90;79.40
2941;DHT22;1480;51.456;6.670;2022-12-04T09:42:02;4.00;79.60
2941;DHT22;1480;51.456;6.670;2022-12-04T09:44:34;4.10;79.70
2941;DHT22;1480;51.456;6.670;2022-12-04T09:47:04;4.10;79.70
2941;DHT22;1480;51.456;6.670;2022-12-04T09:49:37;4.00;79.00
2941;DHT22;1480;51.456;6.670;2022-12-04T09:52:14;3.90;79.30
2941;DHT22;1480;51.456;6.670;2022-12-04T09:54:45;3.90;79.90
2941;DHT22;1480;51.456;6.670;2022-12-04T09:57:24;3.90;79.90
2941;DHT22;1480;51.456;6.670;2022-12-04T09:59:58;3.70;79.90
2941;DHT22;1480;51.456;6.670;2022-12-04T10:02:33;3.80;79.50
2941;DHT22;1480;51.456;6.670;2022-12-04T10:05:01;3.80;79.50
2941;DHT22;1480;51.456;6.670;2022-12-04T10:07:32;3.70;80.20
2941;DHT22;1480;51.456;6.670;2022-12-04T10:10:05;3.90;79.80
2941;DHT22;1480;51.456;6.670;2022-12-04T10:12:44;4.00;80.40
2941;DHT22;1480;51.456;6.670;2022-12-04T10:15:24;4.10;80.00
2941;DHT22;1480;51.456;6.670;2022-12-04T10:18:17;4.20;79.60
2941;DHT22;1480;51.456;6.670;2022-12-04T10:20:59;4.20;79.90
2941;DHT22;1480;51.456;6.670;2022-12-04T10:23:38;4.20;80.10
2941;DHT22;1480;51.456;6.670;2022-12-04T10:26:12;4.30;79.90
2941;DHT22;1480;51.456;6.670;2022-12-04T10:28:44;4.00;79.20
2941;DHT22;1480;51.456;6.670;2022-12-04T10:31:14;4.40;79.60
2941;DHT22;1480;51.456;6.670;2022-12-04T10:33:44;4.30;80.00
2941;DHT22;1480;51.456;6.670;2022-12-04T10:36:15;4.20;80.10
2941;DHT22;1480;51.456;6.670;2022-12-04T10:38:46;4.50;79.60
2941;DHT22;1480;51.456;6.670;2022-12-04T10:41:20;4.10;79.10
2941;DHT22;1480;51.456;6.670;2022-12-04T10:43:50;4.30;79.60
2941;DHT22;1480;51.456;6.670;2022-12-04T10:46:21;4.10;79.20
2941;DHT22;1480;51.456;6.670;2022-12-04T10:48:52;4.30;79.50
2941;DHT22;1480;51.456;6.670;2022-12-04T10:51:20;4.20;79.40
2941;DHT22;1480;51.456;6.670;2022-12-04T10:53:50;4.00;79.50
2941;DHT22;1480;51.456;6.670;2022-12-04T10:56:19;4.10;79.90
2941;DHT22;1480;51.456;6.670;2022-12-04T10:58:58;4.00;79.70
2941;DHT22;1480;51.456;6.670;2022-12-04T11:01:26;4.20;79.30
2941;DHT22;1480;51.456;6.670;2022-12-04T11:03:57;4.40;79.70
2941;DHT22;1480;51.456;6.670;2022-12-04T11:06:25;4.40;79.30
2941;DHT22;1480;51.456;6.670;2022-12-04T11:08:55;4.30;79.60
2941;DHT22;1480;51.456;6.670;2022-12-04T11:11:25;4.40;79.50
2941;DHT22;1480;51.456;6.670;2022-12-04T11:14:03;4.20;79.30
2941;DHT22;1480;51.456;6.670;2022-12-04T11:16:35;4.10;80.20
2941;DHT22;1480;51.456;6.670;2022-12-04T11:19:20;4.40;79.80
2941;DHT22;1480;51.456;6.670;2022-12-04T11:21:48;4.20;79.40
2941;DHT22;1480;51.456;6.670;2022-12-04T11:24:22;4.30;79.10
2941;DHT22;1480;51.456;6.670;2022-12-04T11:26:52;4.10;79.50
2941;DHT22;1480;51.456;6.670;2022-12-04T11:29:24;4.10;79.70
2941;DHT22;1480;51.456;6.670;2022-12-04T11:31:53;4.20;80.00
2941;DHT22;1480;51.456;6.670;2022-12-04T11:34:24;4.20;79.90
2941;DHT22;1480;51.456;6.670;2022-12-04T11:36:55;4.30;80.20
2941;DHT22;1480;51.456;6.670;2022-12-04T11:39:31;4.30;80.50
2941;DHT22;1480;51.456;6.670;2022-12-04T11:42:02;4.20;80.20
2941;DHT22;1480;51.456;6.670;2022-12-04T11:44:31;4.30;80.30
2941;DHT22;1480;51.456;6.670;2022-12-04T11:47:02;4.40;80.10
2941;DHT22;1480;51.456;6.670;2022-12-04T11:49:30;4.30;80.40
2941;DHT22;1480;51.456;6.670;2022-12-04T11:52:08;4.40;80.00
2941;DHT22;1480;51.456;6.670;2022-12-04T11:54:49;4.60;80.40
2941;DHT22;1480;51.456;6.670;2022-12-04T11:57:25;4.20;80.70
2941;DHT22;1480;51.456;6.670;2022-12-04T12:00:08;4.30;80.60
2941;DHT22;1480;51.456;6.670;2022-12-04T12:02:59;4.30;80.50
2941;DHT22;1480;51.456;6.670;2022-12-04T12:08:35;4.60;80.40
2941;DHT22;1480;51.456;6.670;2022-12-04T12:11:14;4.50;81.10
2941;DHT22;1480;51.456;6.670;2022-12-04T12:13:50;4.50;80.20
2941;DHT22;1480;51.456;6.670;2022-12-04T12:16:28;4.60;80.90
2941;DHT22;1480;51.456;6.670;2022-12-04T12:19:08;4.40;80.70
2941;DHT22;1480;51.456;6.670;2022-12-04T12:21:44;4.60;80.50
2941;DHT22;1480;51.456;6.670;2022-12-04T12:24:28;4.60;80.90
2941;DHT22;1480;51.456;6.670;2022-12-04T12:27:24;4.80;80.80
2941;DHT22;1480;51.456;6.670;2022-12-04T12:29:58;4.50;80.90
2941;DHT22;1480;51.456;6.670;2022-12-04T12:32:49;4.50;81.00
2941;DHT22;1480;51.456;6.670;2022-12-04T12:35:21;4.60;81.40
2941;DHT22;1480;51.456;6.670;2022-12-04T12:37:52;4.50;81.20
2941;DHT22;1480;51.456;6.670;2022-12-04T12:40:28;4.30;81.80
2941;DHT22;1480;51.456;6.670;2022-12-04T12:43:02;4.40;82.20
2941;DHT22;1480;51.456;6.670;2022-12-04T12:45:37;4.40;81.70
2941;DHT22;1480;51.456;6.670;2022-12-04T12:48:10;4.60;81.60
2941;DHT22;1480;51.456;6.670;2022-12-04T12:50:45;4.50;82.00
2941;DHT22;1480;51.456;6.670;2022-12-04T12:53:17;4.30;81.90
2941;DHT22;1480;51.456;6.670;2022-12-04T12:55:49;4.60;82.20
2941;DHT22;1480;51.456;6.670;2022-12-04T12:58:25;4.40;82.10
2941;DHT22;1480;51.456;6.670;2022-12-04T13:00:57;4.30;81.90
2941;DHT22;1480;51.456;6.670;2022-12-04T13:03:36;4.30;82.60
2941;DHT22;1480;51.456;6.670;2022-12-04T13:06:12;4.50;82.10
2941;DHT22;1480;51.456;6.670;2022-12-04T13:08:43;4.40;82.70
2941;DHT22;1480;51.456;6.670;2022-12-04T13:11:16;4.50;82.50
2941;DHT22;1480;51.456;6.670;2022-12-04T13:13:48;4.50;82.00
2941;DHT22;1480;51.456;6.670;2022-12-04T13:16:20;4.60;82.20
2941;DHT22;1480;51.456;6.670;2022-12-04T13:18:50;4.60;81.90
2941;DHT22;1480;51.456;6.670;2022-12-04T13:21:29;4.60;82.30
2941;DHT22;1480;51.456;6.670;2022-12-04T13:24:22;4.60;82.30
2941;DHT22;1480;51.456;6.670;2022-12-04T13:26:58;4.50;82.40
2941;DHT22;1480;51.456;6.670;2022-12-04T13:29:39;4.40;82.50
2941;DHT22;1480;51.456;6.670;2022-12-04T13:32:27;4.50;82.80
2941;DHT22;1480;51.456;6.670;2022-12-04T13:35:05;4.70;82.30
2941;DHT22;1480;51.456;6.670;2022-12-04T13:37:51;4.70;82.80
2941;DHT22;1480;51.456;6.670;2022-12-04T13:40:34;4.70;82.90
2941;DHT22;1480;51.456;6.670;2022-12-04T13:43:24;4.80;82.30
2941;DHT22;1480;51.456;6.670;2022-12-04T13:45:54;4.70;82.60
2941;DHT22;1480;51.456;6.670;2022-12-04T13:48:31;4.80;82.70
2941;DHT22;1480;51.456;6.670;2022-12-04T13:51:07;4.80;82.70
2941;DHT22;1480;51.456;6.670;2022-12-04T13:53:47;4.70;82.60
2941;DHT22;1480;51.456;6.670;2022-12-04T13:56:26;4.80;82.40
2941;DHT22;1480;51.456;6.670;2022-12-04T13:58:59;4.90;82.00
2941;DHT22;1480;51.456;6.670;2022-12-04T14:01:34;4.90;82.10
2941;DHT22;1480;51.456;6.670;2022-12-04T14:04:03;4.90;81.80
2941;DHT22;1480;51.456;6.670;2022-12-04T14:06:34;4.90;81.80
2941;DHT22;1480;51.456;6.670;2022-12-04T14:09:04;4.80;82.60
2941;DHT22;1480;51.456;6.670;2022-12-04T14:11:41;5.00;82.30
2941;DHT22;1480;51.456;6.670;2022-12-04T14:14:23;5.00;82.20
2941;DHT22;1480;51.456;6.670;2022-12-04T14:16:54;4.90;82.10
2941;DHT22;1480;51.456;6.670;2022-12-04T14:19:28;5.00;82.20
2941;DHT22;1480;51.456;6.670;2022-12-04T14:21:57;4.80;82.40
2941;DHT22;1480;51.456;6.670;2022-12-04T14:24:35;4.80;82.10
2941;DHT22;1480;51.456;6.670;2022-12-04T14:27:30;4.80;82.10
2941;DHT22;1480;51.456;6.670;2022-12-04T14:29:58;4.90;82.00
2941;DHT22;1480;51.456;6.670;2022-12-04T14:32:29;5.10;81.90
2941;DHT22;1480;51.456;6.670;2022-12-04T14:34:57;4.90;81.90
2941;DHT22;1480;51.456;6.670;2022-12-04T14:37:28;5.00;81.80
2941;DHT22;1480;51.456;6.670;2022-12-04T14:39:57;5.00;81.90
2941;DHT22;1480;51.456;6.670;2022-12-04T14:42:26;4.80;81.60
2941;DHT22;1480;51.456;6.670;2022-12-04T14:44:55;4.90;81.80
2941;DHT22;1480;51.456;6.670;2022-12-04T14:47:34;4.70;82.10
2941;DHT22;1480;51.456;6.670;2022-12-04T14:50:24;4.70;82.00
2941;DHT22;1480;51.456;6.670;2022-12-04T14:53:03;4.90;82.70
2941;DHT22;1480;51.456;6.670;2022-12-04T14:55:39;4.80;82.10
2941;DHT22;1480;51.456;6.670;2022-12-04T14:58:14;4.60;81.90
2941;DHT22;1480;51.456;6.670;2022-12-04T15:01:00;4.70;82.00
2941;DHT22;1480;51.456;6.670;2022-12-04T15:03:34;4.90;82.40
2941;DHT22;1480;51.456;6.670;2022-12-04T15:06:05;4.70;82.20
2941;DHT22;1480;51.456;6.670;2022-12-04T15:08:34;4.90;82.30
2941;DHT22;1480;51.456;6.670;2022-12-04T15:11:08;5.10;81.90
2941;DHT22;1480;51.456;6.670;2022-12-04T15:14:04;5.00;81.30
2941;DHT22;1480;51.456;6.670;2022-12-04T15:16:31;5.10;81.30
2941;DHT22;1480;51.456;6.670;2022-12-04T15:19:00;4.90;81.50
2941;DHT22;1480;51.456;6.670;2022-12-04T15:21:32;5.10;81.20
2941;DHT22;1480;51.456;6.670;2022-12-04T15:24:00;4.90;81.80
2941;DHT22;1480;51.456;6.670;2022-12-04T15:26:28;5.10;81.50
2941;DHT22;1480;51.456;6.670;2022-12-04T15:28:57;5.10;81.60
2941;DHT22;1480;51.456;6.670;2022-12-04T15:31:30;5.00;81.60
2941;DHT22;1480;51.456;6.670;2022-12-04T15:34:05;5.00;81.60
2941;DHT22;1480;51.456;6.670;2022-12-04T15:36:41;4.90;82.00
2941;DHT22;1480;51.456;6.670;2022-12-04T15:39:14;5.00;82.00
2941;DHT22;1480;51.456;6.670;2022-12-04T15:41:48;5.20;82.20
2941;DHT22;1480;51.456;6.670;2022-12-04T15:44:27;4.80;81.90
2941;DHT22;1480;51.456;6.670;2022-12-04T15:46:57;5.10;82.00
2941;DHT22;1480;51.456;6.670;2022-12-04T15:49:29;5.10;81.70
2941;DHT22;1480;51.456;6.670;2022-12-04T15:52:05;5.20;81.50
2941;DHT22;1480;51.456;6.670;2022-12-04T15:54:33;5.10;81.60
2941;DHT22;1480;51.456;6.670;2022-12-04T15:57:24;5.10;81.70
2941;DHT22;1480;51.456;6.670;2022-12-04T15:59:52;5.20;82.20
2941;DHT22;1480;51.456;6.670;2022-12-04T16:02:23;5.10;81.60
2941;DHT22;1480;51.456;6.670;2022-12-04T16:04:52;5.10;81.50
2941;DHT22;1480;51.456;6.670;2022-12-04T16:07:21;4.90;81.60
2941;DHT22;1480;51.456;6.670;2022-12-04T16:09:52;5.00;81.80
2941;DHT22;1480;51.456;6.670;2022-12-04T16:12:23;5.20;82.00
2941;DHT22;1480;51.456;6.670;2022-12-04T16:14:51;5.10;82.00
2941;DHT22;1480;51.456;6.670;2022-12-04T16:17:19;4.90;81.80
2941;DHT22;1480;51.456;6.670;2022-12-04T16:19:48;5.00;81.70
2941;DHT22;1480;51.456;6.670;2022-12-04T16:22:18;4.90;81.60
2941;DHT22;1480;51.456;6.670;2022-12-04T16:24:46;5.00;82.00
2941;DHT22;1480;51.456;6.670;2022-12-04T16:27:18;5.10;82.20
2941;DHT22;1480;51.456;6.670;2022-12-04T16:29:47;5.20;81.70
2941;DHT22;1480;51.456;6.670;2022-12-04T16:32:16;5.20;82.00
2941;DHT22;1480;51.456;6.670;2022-12-04T16:34:44;5.30;81.90
2941;DHT22;1480;51.456;6.670;2022-12-04T16:37:11;5.20;82.00
2941;DHT22;1480;51.456;6.670;2022-12-04T16:39:40;5.20;82.00
2941;DHT22;1480;51.456;6.670;2022-12-04T16:42:14;5.00;82.10
2941;DHT22;1480;51.456;6.670;2022-12-04T16:44:41;4.90;82.00
2941;DHT22;1480;51.456;6.670;2022-12-04T16:47:09;5.00;82.40
2941;DHT22;1480;51.456;6.670;2022-12-04T16:49:36;4.90;82.10